Weather History for Plainview, TX

Change the Weather History Date:

Tuesday, November 29, 2011

  Actual Average Record
Temperature  
Mean Temperature 43 °F -  
Max Temperature 51 °F 52 °F 87 °F (1949)
Min Temperature 35 °F 30 °F 6 °F (1911)
Degree Days  
Heating Degree Days 22    
Moisture  
Dew Point 27 °F    
Average Humidity 55    
Maximum Humidity 75    
Minimum Humidity 41    
Precipitation  
Precipitation 0.00 in - - ()
Sea Level Pressure  
Sea Level Pressure 30.26 in    
Wind  
Wind Speed 12 mph (NNE)    
Max Wind Speed 24 mph    
Max Gust Speed 29 mph    
Visibility 10 miles    
Events      
Averages and records for this station are not official NWS values.
T = Trace of Precipitation, MM = Missing Value Source: NWS Daily Summary

Daily Weather History Graph

Daily Weather History Graph

Search for Another Location

Airport:

Trip Planner

Search our weather history database for the weather conditions in past years. The results will help you decide how hot, cold, wet, or windy it might be!

Date:

Astronomy

Nov. 29, 2011 Rise Set
Actual Time 7:32 AM CST 5:37 PM CST
Civil Twilight 7:05 AM CST 6:04 PM CST
Nautical Twilight 6:34 AM CST 6:35 PM CST
Astronomical Twilight 6:04 AM CST 7:05 PM CST
Moon 11:24 AM CST (11/29) 10:27 PM CST (11/29)
Length of Visible Light 10h 59m
Length of Day
10h 04m
Waxing Crescent, 24% of the Moon is Illuminated
Nov 29
Waxing Crescent
Dec 2
First Quarter
Dec 10
Full
Dec 17
Last Quarter
Dec 24
New

Hourly Weather History & Observations

Time (CST) Temp. Windchill Dew Point Humidity Pressure Visibility Wind Dir Wind Speed Gust Speed Precip Events Conditions
12:15 AM 35.6 °F 28.0 °F 21.2 °F 56% 30.13 in 10.0 mi NW 10.4 mph - N/A   Clear
12:35 AM 35.6 °F 29.2 °F 21.2 °F 56% 30.14 in 10.0 mi NNW 8.1 mph - N/A   Clear
12:55 AM 39.2 °F 33.6 °F 21.2 °F 49% 30.15 in 10.0 mi NNW 8.1 mph - N/A   Clear
1:15 AM 42.8 °F 35.8 °F 21.2 °F 42% 30.15 in 10.0 mi North 13.8 mph - N/A   Clear
1:35 AM 44.6 °F 37.2 °F 23.0 °F 43% 30.15 in 10.0 mi North 17.3 mph 25.3 mph N/A   Clear
1:55 AM 44.6 °F 36.4 °F 23.0 °F 43% 30.16 in 10.0 mi North 20.7 mph 28.8 mph N/A   Clear
2:15 AM 42.8 °F 34.8 °F 23.0 °F 46% 30.17 in 10.0 mi North 17.3 mph 24.2 mph N/A   Clear
2:35 AM 42.8 °F 34.5 °F 23.0 °F 46% 30.18 in 10.0 mi North 18.4 mph 27.6 mph N/A   Clear
2:55 AM 42.8 °F 33.3 °F 23.0 °F 46% 30.18 in 10.0 mi North 24.2 mph 28.8 mph N/A   Clear
3:15 AM 41.0 °F 31.9 °F 23.0 °F 49% 30.18 in 10.0 mi North 19.6 mph - N/A   Clear
3:35 AM 41.0 °F 31.6 °F 24.8 °F 53% 30.19 in 10.0 mi North 20.7 mph 25.3 mph N/A   Clear
3:55 AM 41.0 °F 31.9 °F 23.0 °F 49% 30.20 in 10.0 mi North 19.6 mph 24.2 mph N/A   Clear
4:15 AM 41.0 °F 31.6 °F 24.8 °F 53% 30.19 in 10.0 mi North 20.7 mph 24.2 mph N/A   Clear
4:35 AM 41.0 °F 32.2 °F 24.8 °F 53% 30.20 in 10.0 mi NNE 18.4 mph - N/A   Clear
4:55 AM 41.0 °F 32.8 °F 24.8 °F 53% 30.21 in 10.0 mi NNE 16.1 mph 23.0 mph N/A   Clear
5:15 AM 39.2 °F 30.8 °F 24.8 °F 56% 30.21 in 10.0 mi NNE 15.0 mph 23.0 mph N/A   Clear
5:35 AM 39.2 °F 30.8 °F 24.8 °F 56% 30.22 in 10.0 mi NNE 15.0 mph 21.9 mph N/A   Clear
6:15 AM 37.4 °F 29.8 °F 26.6 °F 65% 30.25 in 10.0 mi North 11.5 mph - N/A   Clear
6:35 AM 37.4 °F 29.8 °F 24.8 °F 60% 30.26 in 10.0 mi North 11.5 mph 16.1 mph N/A   Clear
6:55 AM 35.6 °F 28.0 °F 24.8 °F 65% 30.27 in 10.0 mi North 10.4 mph - N/A   Clear
7:15 AM 35.6 °F 26.6 °F 26.6 °F 70% 30.28 in 10.0 mi North 13.8 mph 18.4 mph N/A   Clear
7:35 AM 35.6 °F 27.5 °F 26.6 °F 70% 30.29 in 10.0 mi North 11.5 mph - N/A   Clear
7:55 AM 35.6 °F 27.5 °F 26.6 °F 70% 30.30 in 10.0 mi North 11.5 mph - N/A   Clear
8:15 AM 35.6 °F 28.0 °F 26.6 °F 70% 30.31 in 10.0 mi North 10.4 mph - N/A   Clear
8:35 AM 35.6 °F 26.6 °F 26.6 °F 70% 30.31 in 10.0 mi North 13.8 mph - N/A   Clear
8:55 AM 39.2 °F 32.5 °F 28.4 °F 65% 30.32 in 10.0 mi North 10.4 mph - N/A   Clear
9:15 AM 41.0 °F 35.2 °F 28.4 °F 61% 30.33 in 10.0 mi North 9.2 mph - N/A   Clear
9:35 AM 41.0 °F 34.7 °F 28.4 °F 61% 30.33 in 10.0 mi NNE 10.4 mph - N/A   Clear
9:55 AM 41.0 °F 34.3 °F 28.4 °F 61% 30.33 in 10.0 mi North 11.5 mph 17.3 mph N/A   Clear
10:35 AM 42.8 °F 35.8 °F 26.6 °F 53% 30.34 in 10.0 mi NNE 13.8 mph 18.4 mph N/A   Clear
10:55 AM 44.6 °F 38.1 °F 26.6 °F 49% 30.34 in 10.0 mi NE 13.8 mph - N/A   Clear
11:15 AM 46.4 °F 40.4 °F 28.4 °F 50% 30.34 in 10.0 mi NNE 13.8 mph 18.4 mph N/A   Clear
11:35 AM 46.4 °F 41.1 °F 28.4 °F 50% 30.33 in 10.0 mi NE 11.5 mph 17.3 mph N/A   Clear
11:55 AM 46.4 °F 40.7 °F 26.6 °F 46% 30.32 in 10.0 mi NE 12.7 mph - N/A   Clear
12:35 PM 48.2 °F - 30.2 °F 50% 30.32 in 10.0 mi NE 10.4 mph - N/A   Clear
12:55 PM 50.0 °F - 32.0 °F 50% 30.31 in 10.0 mi NE 9.2 mph - N/A   Clear
1:55 PM 50.0 °F - 30.2 °F 47% 30.28 in 10.0 mi NE 8.1 mph - N/A   Clear
2:15 PM 50.0 °F - 30.2 °F 47% 30.28 in 10.0 mi NNE 6.9 mph - N/A   Clear
2:35 PM 50.0 °F - 30.2 °F 47% 30.27 in 10.0 mi NE 5.8 mph - N/A   Clear
2:55 PM 50.0 °F - 28.4 °F 43% 30.27 in 10.0 mi ENE 5.8 mph - N/A   Clear
3:15 PM 50.0 °F - 28.4 °F 43% 30.27 in 10.0 mi NE 3.5 mph - N/A   Clear
3:35 PM 50.0 °F - 28.4 °F 43% 30.27 in 10.0 mi NE 5.8 mph - N/A   Clear
3:55 PM 50.0 °F - 28.4 °F 43% 30.27 in 10.0 mi NE 3.5 mph - N/A   Clear
4:15 PM 51.8 °F - 28.4 °F 41% 30.27 in 10.0 mi ENE 6.9 mph - N/A   Clear
4:35 PM 50.0 °F - 28.4 °F 43% 30.27 in 10.0 mi NNE 6.9 mph - N/A   Clear
4:55 PM 50.0 °F - 28.4 °F 43% 30.27 in 10.0 mi ENE 6.9 mph - N/A   Clear
5:15 PM 50.0 °F - 28.4 °F 43% 30.27 in 10.0 mi ENE 5.8 mph - N/A   Clear
5:35 PM 44.6 °F 41.4 °F 28.4 °F 53% 30.27 in 10.0 mi East 5.8 mph - N/A   Clear
5:55 PM 46.4 °F 44.3 °F 28.4 °F 50% 30.27 in 10.0 mi ENE 4.6 mph - N/A   Clear
6:15 PM 41.0 °F 38.0 °F 28.4 °F 61% 30.27 in 10.0 mi East 4.6 mph - N/A   Clear
6:35 PM 42.8 °F 39.3 °F 28.4 °F 57% 30.27 in 10.0 mi East 5.8 mph - N/A   Clear
6:55 PM 39.2 °F 35.0 °F 28.4 °F 65% 30.28 in 10.0 mi ENE 5.8 mph - N/A   Clear
7:35 PM 39.2 °F 37.0 °F 28.4 °F 65% 30.28 in 10.0 mi East 3.5 mph - N/A   Clear
7:55 PM 37.4 °F - 26.6 °F 65% 30.29 in 10.0 mi Calm Calm - N/A   Clear
8:15 PM 35.6 °F - 28.4 °F 75% 30.29 in 10.0 mi Calm Calm - N/A   Clear
8:35 PM 35.6 °F - 28.4 °F 75% 30.29 in 10.0 mi Calm Calm - N/A   Clear
8:55 PM 35.6 °F - 28.4 °F 75% 30.29 in 10.0 mi Calm Calm - N/A   Clear
9:15 PM 33.8 °F - 26.6 °F 75% 30.29 in 10.0 mi Calm Calm - N/A   Clear
9:35 PM 33.8 °F - 26.6 °F 75% 30.29 in 10.0 mi Calm Calm - N/A   Clear
9:55 PM 32.0 °F - 24.8 °F 75% 30.29 in 10.0 mi Calm Calm - N/A   Clear
10:15 PM 32.0 °F 27.5 °F 24.8 °F 75% 30.28 in 10.0 mi SSW 4.6 mph - N/A   Clear
10:35 PM 32.0 °F - 23.0 °F 69% 30.28 in 10.0 mi Calm Calm - N/A   Clear
10:55 PM 30.2 °F 26.7 °F 24.8 °F 80% 30.27 in 10.0 mi WSW 3.5 mph - N/A   Clear
11:15 PM 30.2 °F 24.3 °F 23.0 °F 75% 30.27 in 10.0 mi SW 5.8 mph - N/A   Clear
11:35 PM 32.0 °F 26.4 °F 24.8 °F 75% 30.27 in 10.0 mi WSW 5.8 mph - N/A   Clear
11:55 PM 30.2 °F 23.4 °F 24.8 °F 80% 30.27 in 10.0 mi WSW 6.9 mph - N/A   Clear